.
WxDataArchive / Data Records for 2016-01-26
2016-01-25 January 2016 2016-01-27

Data Records for Tuesday, 26 January 2016

Time	Temp	Chill	HIndex	Humid	Dewpt	 Wind 	HiWind	WindDir	Rain 	Barom
-----	----	-----	------	-----	-----	------	------	-------	-----	-----
00:00	44.3	44.3	44.3	85	40.1	1	9	248	0.00	29.718 
00:05	44.3	44.3	44.3	85	40.1	1	3	248	0.00	29.718 
00:10	44.3	44.3	44.3	85	40.1	0	4	248	0.00	29.718 
00:15	44.5	44.5	44.5	86	40.6	1	4	248	0.00	29.708 
00:20	44.5	44.5	44.5	86	40.6	0	3	225	0.00	29.708 
00:25	44.6	44.6	44.6	86	40.7	1	6	248	0.00	29.708 
00:30	44.6	44.6	44.6	86	40.7	1	4	248	0.00	29.702 
00:35	44.8	44.8	44.8	86	40.9	1	4	248	0.00	29.702 
00:40	44.9	44.9	44.9	87	41.3	1	4	248	0.00	29.702 
00:45	45.1	45.1	45.1	86	41.2	1	4	248	0.00	29.696 
00:50	45.1	45.1	45.1	87	41.5	1	5	248	0.00	29.696 
00:55	45.2	45.2	45.2	86	41.3	1	4	270	0.00	29.696 
01:00	45.2	45.2	45.2	87	41.6	1	5	248	0.00	29.690 
01:05	45.4	45.4	45.4	86	41.5	1	5	248	0.00	29.690 
01:10	45.2	45.2	45.2	86	41.3	1	6	248	0.00	29.690 
01:15	45.4	45.4	45.4	86	41.5	2	5	248	0.00	29.689 
01:20	45.4	45.4	45.4	87	41.8	1	5	248	0.00	29.689 
01:25	45.5	45.5	45.5	87	41.9	1	5	248	0.00	29.689 
01:30	45.7	45.7	45.7	87	42.1	1	4	248	0.00	29.686 
01:35	45.7	45.7	45.7	87	42.1	2	5	248	0.00	29.686 
01:40	45.8	45.8	45.8	87	42.2	1	4	248	0.00	29.686 
01:45	46.0	46.0	46.0	86	42.0	2	4	248	0.00	29.684 
01:50	46.0	46.0	46.0	86	42.0	1	5	248	0.00	29.684 
01:55	46.1	46.1	46.1	87	42.4	1	4	248	0.00	29.684 
02:00	46.1	46.1	46.1	87	42.4	1	4	248	0.00	29.685 
02:05	46.2	46.2	46.2	87	42.5	3	10	270	0.00	29.685 
02:10	46.4	46.4	46.4	87	42.7	2	6	270	0.00	29.685 
02:15	46.5	46.5	46.5	86	42.5	2	7	248	0.00	29.684 
02:20	46.5	46.5	46.5	86	42.5	2	6	248	0.00	29.684 
02:25	46.5	46.5	46.5	86	42.5	1	5	248	0.00	29.684 
02:30	46.5	46.5	46.5	86	42.5	2	7	248	0.00	29.683 
02:35	46.4	46.4	46.4	86	42.4	1	4	248	0.00	29.683 
02:40	46.4	46.4	46.4	86	42.4	2	5	248	0.00	29.683 
02:45	46.2	46.2	46.2	86	42.2	2	7	248	0.00	29.687 
02:50	46.2	46.2	46.2	85	41.9	3	7	248	0.00	29.687 
02:55	46.1	46.1	46.1	85	41.8	2	6	248	0.00	29.687 
03:00	46.0	46.0	46.0	85	41.7	2	10	248	0.00	29.691 
03:05	45.5	45.5	45.5	84	41.0	3	9	248	0.00	29.691 
03:10	45.2	45.2	45.2	83	40.3	2	6	248	0.00	29.691 
03:15	45.1	45.1	45.1	82	39.9	2	6	248	0.00	29.700 
03:20	44.8	44.8	44.8	82	39.6	3	7	248	0.00	29.700 
03:25	43.8	41.7	43.8	80	38.0	4	9	270	0.00	29.700 
03:30	42.8	39.8	42.8	79	36.7	5	12	248	0.00	29.718 
03:35	42.2	39.9	42.2	78	35.8	4	9	248	0.00	29.718 
03:40	41.6	38.4	41.6	78	35.3	5	14	248	0.00	29.718 
03:45	41.1	38.6	41.1	78	34.8	4	14	248	0.00	29.728 
03:50	40.6	37.2	40.6	77	34.0	5	12	248	0.00	29.728 
03:55	40.3	37.7	40.3	77	33.7	4	12	248	0.00	29.728 
04:00	40.1	37.4	40.1	78	33.8	4	10	248	0.00	29.738 
04:05	39.9	39.9	39.9	79	33.9	3	10	248	0.00	29.738 
04:10	39.6	39.6	39.6	80	33.9	3	10	248	0.00	29.738 
04:15	39.3	36.5	39.3	80	33.7	4	10	248	0.00	29.745 
04:20	39.1	39.1	39.1	81	33.8	3	9	248	0.00	29.745 
04:25	38.8	38.8	38.8	81	33.5	3	7	248	0.00	29.745 
04:30	38.6	38.6	38.6	82	33.6	1	6	248	0.00	29.748 
04:35	38.3	38.3	38.3	82	33.3	3	7	248	0.00	29.748 
04:40	38.2	38.2	38.2	82	33.2	3	7	248	0.00	29.748 
04:45	38.0	38.0	38.0	82	33.0	2	5	270	0.00	29.759 
04:50	37.6	37.6	37.6	81	32.3	3	9	270	0.00	29.759 
04:55	37.0	37.0	37.0	82	32.0	3	6	248	0.00	29.759 
05:00	36.6	36.6	36.6	83	31.9	3	7	248	0.00	29.773 
05:05	36.0	31.8	36.0	84	31.6	5	9	248	0.00	29.773 
05:10	35.8	32.5	35.8	84	31.4	4	9	248	0.00	29.773 
05:15	35.5	35.5	35.5	84	31.2	3	10	248	0.00	29.781 
05:20	35.3	31.9	35.3	84	31.0	4	9	248	0.00	29.781 
05:25	35.0	35.0	35.0	84	30.7	3	9	270	0.00	29.781 
05:30	35.0	35.0	35.0	84	30.7	3	7	270	0.00	29.789 
05:35	34.9	31.4	34.9	84	30.6	4	12	248	0.00	29.789 
05:40	34.7	31.2	34.7	84	30.4	4	10	248	0.00	29.789 
05:45	34.6	31.1	34.6	84	30.3	4	13	248	0.00	29.791 
05:50	34.6	30.1	34.6	84	30.3	5	10	248	0.00	29.791 
05:55	34.4	30.8	34.4	84	30.1	4	11	248	0.00	29.791 
06:00	34.3	29.8	34.3	83	29.7	5	13	248	0.00	29.804 
06:05	34.1	29.5	34.1	82	29.2	5	10	270	0.00	29.804 
06:10	34.0	30.4	34.0	82	29.1	4	13	248	0.00	29.804 
06:15	33.8	33.8	33.8	82	28.9	2	6	248	0.00	29.809 
06:20	33.8	30.2	33.8	82	28.9	4	11	270	0.00	29.809 
06:25	33.7	30.0	33.7	82	28.8	4	12	248	0.00	29.809 
06:30	33.5	33.5	33.5	82	28.6	3	7	248	0.00	29.818 
06:35	33.4	29.7	33.4	83	28.8	4	11	248	0.00	29.818 
06:40	33.4	33.4	33.4	83	28.8	3	10	270	0.00	29.818 
06:45	33.2	29.5	33.2	82	28.3	4	9	248	0.00	29.826 
06:50	33.2	29.5	33.2	82	28.3	4	11	270	0.00	29.826 
06:55	33.4	33.4	33.4	81	28.2	3	7	248	0.00	29.826 
07:00	33.2	33.2	33.2	82	28.3	3	7	248	0.00	29.831 
07:05	33.2	33.2	33.2	82	28.3	3	7	248	0.00	29.831 
07:10	33.1	33.1	33.1	82	28.2	3	6	248	0.00	29.831 
07:15	33.1	33.1	33.1	81	27.9	2	5	248	0.00	29.839 
07:20	33.1	33.1	33.1	81	27.9	2	5	270	0.00	29.839 
07:25	33.1	29.3	33.1	81	27.9	4	7	270	0.00	29.839 
07:30	33.1	33.1	33.1	80	27.6	3	6	248	0.00	29.845 
07:35	33.1	28.4	33.1	80	27.6	5	9	270	0.00	29.845 
07:40	33.1	29.3	33.1	79	27.3	4	9	248	0.00	29.845 
07:45	33.1	33.1	33.1	80	27.6	3	6	248	0.00	29.856 
07:50	32.9	29.1	32.9	80	27.4	4	10	248	0.00	29.856 
07:55	32.9	32.9	32.9	79	27.1	3	7	270	0.00	29.856 
08:00	32.8	29.0	32.8	79	27.0	4	9	270	0.00	29.861 
08:05	32.8	32.8	32.8	79	27.0	3	6	248	0.00	29.861 
08:10	32.8	32.8	32.8	80	27.3	3	7	248	0.00	29.861 
08:15	32.8	32.8	32.8	80	27.3	1	5	248	0.00	29.867 
08:20	32.7	32.7	32.7	79	26.9	3	10	248	0.00	29.867 
08:25	32.5	28.7	32.5	79	26.7	4	11	248	0.00	29.867 
08:30	32.4	28.5	32.4	78	26.3	4	15	248	0.00	29.877 
08:35	32.4	32.4	32.4	77	26.0	3	10	270	0.00	29.877 
08:40	32.4	32.4	32.4	77	26.0	3	6	248	0.00	29.877 
08:45	32.4	32.4	32.4	78	26.3	3	9	270	0.00	29.889 
08:50	32.4	32.4	32.4	78	26.3	3	7	270	0.00	29.889 
08:55	32.4	32.4	32.4	79	26.6	3	5	248	0.00	29.889 
09:00	32.4	32.4	32.4	79	26.6	3	8	248	0.00	29.902 
09:05	32.4	28.5	32.4	79	26.6	4	10	248	0.00	29.902 
09:10	32.4	32.4	32.4	80	26.9	3	7	270	0.00	29.902 
09:15	32.4	28.5	32.4	80	26.9	4	10	248	0.00	29.904 
09:20	32.4	32.4	32.4	80	26.9	3	6	270	0.00	29.904 
09:25	32.4	32.4	32.4	81	27.2	2	7	248	0.00	29.904 
09:30	32.4	32.4	32.4	81	27.2	2	6	248	0.00	29.915 
09:35	32.4	32.4	32.4	81	27.2	2	6	248	0.00	29.915 
09:40	32.4	32.4	32.4	81	27.2	3	9	248	0.00	29.915 
09:45	32.2	28.3	32.2	81	27.0	4	12	248	0.00	29.923 
09:50	32.2	28.3	32.2	81	27.0	4	11	248	0.00	29.923 
09:55	32.2	32.2	32.2	81	27.0	3	9	248	0.00	29.923 
10:00	32.2	32.2	32.2	81	27.0	3	8	248	0.00	29.934 
10:05	32.2	32.2	32.2	80	26.7	2	4	248	0.00	29.934 
10:10	32.1	32.1	32.1	80	26.6	2	4	248	0.00	29.934 
10:15	32.1	32.1	32.1	79	26.3	3	6	248	0.00	29.941 
10:20	31.9	28.0	31.9	79	26.1	4	10	248	0.00	29.941 
10:25	31.8	27.8	31.8	79	26.0	4	11	248	0.00	29.941 
10:30	31.8	27.8	31.8	79	26.0	4	9	248	0.00	29.945 
10:35	31.8	31.8	31.8	78	25.7	3	6	270	0.00	29.945 
10:40	31.8	27.8	31.8	78	25.7	4	8	248	0.00	29.945 
10:45	31.9	31.9	31.9	78	25.8	3	6	248	0.00	29.950 
10:50	31.9	31.9	31.9	78	25.8	3	6	248	0.00	29.950 
10:55	31.8	26.8	31.8	76	25.1	5	11	270	0.00	29.950 
11:00	31.9	31.9	31.9	75	24.9	3	9	270	0.00	29.963 
11:05	31.9	28.0	31.9	74	24.6	4	7	270	0.00	29.963 
11:10	32.1	28.2	32.1	73	24.4	4	9	270	0.00	29.963 
11:15	32.1	32.1	32.1	73	24.4	3	6	270	0.00	29.967 
11:20	32.2	32.2	32.2	73	24.5	2	6	270	0.00	29.967 
11:25	32.2	32.2	32.2	73	24.5	2	5	270	0.00	29.967 
11:30	32.4	32.4	32.4	72	24.4	3	7	248	0.00	29.974 
11:35	32.5	32.5	32.5	71	24.2	3	6	270	0.00	29.974 
11:40	32.5	32.5	32.5	72	24.5	3	10	270	0.00	29.974 
11:45	32.7	32.7	32.7	72	24.7	2	6	270	0.00	29.976 
11:50	32.7	28.9	32.7	70	24.0	4	9	270	0.00	29.976 
11:55	32.7	32.7	32.7	71	24.4	3	7	270	0.00	29.976 
12:00	32.7	28.9	32.7	70	24.0	4	9	270	0.00	29.979 
12:05	32.7	32.7	32.7	70	24.0	3	10	270	0.00	29.979 
12:10	32.8	29.0	32.8	70	24.1	4	7	270	0.00	29.979 
12:15	32.8	32.8	32.8	70	24.1	3	6	270	0.00	29.981 
12:20	32.8	32.8	32.8	70	24.1	3	6	270	0.00	29.981 
12:25	32.8	32.8	32.8	71	24.4	2	6	270	0.00	29.981 
12:30	32.8	32.8	32.8	70	24.1	3	7	292	0.00	29.983 
12:35	32.7	27.9	32.7	71	24.4	5	12	270	0.00	29.983 
12:40	32.7	32.7	32.7	71	24.4	3	6	270	0.00	29.983 
12:45	32.7	28.9	32.7	71	24.4	4	7	292	0.00	29.985 
12:50	32.7	32.7	32.7	70	24.0	3	5	248	0.00	29.985 
12:55	32.7	28.9	32.7	70	24.0	4	9	270	0.00	29.985 
13:00	32.7	32.7	32.7	70	24.0	3	6	270	0.00	29.990 
13:05	32.7	32.7	32.7	70	24.0	3	6	270	0.00	29.990 
13:10	32.7	32.7	32.7	70	24.0	3	6	270	0.00	29.990 
13:15	32.7	28.9	32.7	70	24.0	4	7	270	0.00	29.995 
13:20	32.7	32.7	32.7	71	24.4	2	8	248	0.00	29.995 
13:25	32.7	32.7	32.7	67	23.0	3	10	270	0.00	29.995 
13:30	32.8	32.8	32.8	71	24.4	2	5	270	0.00	29.996 
13:35	32.7	32.7	32.7	71	24.4	3	7	270	0.00	29.996 
13:40	32.5	32.5	32.5	73	24.8	2	6	248	0.00	29.996 
13:45	32.5	32.5	32.5	74	25.2	2	5	248	0.00	29.999 
13:50	32.4	32.4	32.4	75	25.4	2	5	270	0.00	29.999 
13:55	32.5	32.5	32.5	74	25.2	2	6	248	0.00	29.999 
14:00	32.4	28.5	32.4	71	24.1	4	7	270	0.00	29.998 
14:05	32.2	32.2	32.2	72	24.2	3	7	270	0.00	29.998 
14:10	32.2	32.2	32.2	72	24.2	3	5	270	0.00	29.998 
14:15	32.1	32.1	32.1	73	24.4	2	5	270	0.00	30.002 
14:20	32.1	32.1	32.1	76	25.4	2	6	248	0.00	30.002 
14:25	31.9	31.9	31.9	77	25.5	1	4	248	0.00	30.002 
14:30	31.8	31.8	31.8	77	25.4	2	4	248	0.00	29.999 
14:35	31.6	31.6	31.6	78	25.5	2	4	248	0.00	29.999 
14:40	31.6	31.6	31.6	78	25.5	2	5	248	0.00	29.999 
14:45	31.6	31.6	31.6	78	25.5	2	4	248	0.00	29.997 
14:50	31.8	31.8	31.8	78	25.7	2	4	248	0.00	29.997 
14:55	31.9	31.9	31.9	77	25.5	2	6	248	0.00	29.997 
15:00	31.9	31.9	31.9	77	25.5	1	4	248	0.00	29.996 
15:05	31.9	31.9	31.9	77	25.5	2	4	248	0.00	29.996 
15:10	31.9	31.9	31.9	76	25.2	3	6	248	0.00	29.996 
15:15	31.9	31.9	31.9	75	24.9	3	5	248	0.00	30.005 
15:20	31.9	31.9	31.9	75	24.9	2	9	248	0.00	30.005 
15:25	32.1	32.1	32.1	75	25.1	2	5	248	0.00	30.005 
15:30	31.9	31.9	31.9	75	24.9	2	6	248	0.00	30.016 
15:35	31.8	31.8	31.8	75	24.8	2	4	270	0.00	30.016 
15:40	31.8	31.8	31.8	75	24.8	2	5	248	0.00	30.016 
15:45	31.8	31.8	31.8	76	25.1	1	3	248	0.00	30.026 
15:50	31.8	31.8	31.8	75	24.8	2	5	270	0.00	30.026 
15:55	31.8	31.8	31.8	75	24.8	1	4	270	0.00	30.026 
16:00	31.8	31.8	31.8	74	24.5	2	6	248	0.00	30.031 
16:05	31.9	31.9	31.9	74	24.6	2	5	248	0.00	30.031 
16:10	31.9	31.9	31.9	74	24.6	2	5	248	0.00	30.031 
16:15	31.9	31.9	31.9	74	24.6	2	4	292	0.00	30.035 
16:20	31.9	31.9	31.9	73	24.2	2	4	248	0.00	30.035 
16:25	32.1	32.1	32.1	73	24.4	2	4	270	0.00	30.035 
16:30	32.1	32.1	32.1	73	24.4	1	4	248	0.00	30.037 
16:35	32.1	32.1	32.1	73	24.4	2	5	248	0.00	30.037 
16:40	32.1	32.1	32.1	73	24.4	1	3	248	0.00	30.037 
16:45	31.9	31.9	31.9	73	24.2	2	4	225	0.00	30.039 
16:50	31.9	31.9	31.9	73	24.2	2	4	270	0.00	30.039 
16:55	31.9	31.9	31.9	72	23.9	2	4	248	0.00	30.039 
17:00	31.9	31.9	31.9	71	23.6	2	4	248	0.00	30.048 
17:05	31.9	31.9	31.9	72	23.9	2	5	248	0.00	30.048 
17:10	31.9	31.9	31.9	73	24.2	2	7	248	0.00	30.048 
17:15	31.8	31.8	31.8	74	24.5	1	4	248	0.00	30.054 
17:20	31.8	31.8	31.8	74	24.5	1	3	248	0.00	30.054 
17:25	31.6	31.6	31.6	74	24.3	1	4	248	0.00	30.054 
17:30	31.5	31.5	31.5	74	24.2	1	4	248	0.00	30.068 
17:35	31.5	31.5	31.5	74	24.2	2	4	270	0.00	30.068 
17:40	31.3	31.3	31.3	74	24.0	1	5	248	0.00	30.068 
17:45	31.2	31.2	31.2	74	23.9	1	3	248	0.00	30.073 
17:50	31.2	31.2	31.2	73	23.6	2	6	248	0.00	30.073 
17:55	31.0	31.0	31.0	73	23.4	2	5	248	0.00	30.073 
18:00	31.0	31.0	31.0	73	23.4	2	4	248	0.00	30.085 
18:05	31.0	31.0	31.0	73	23.4	1	4	248	0.00	30.085 
18:10	30.9	30.9	30.9	73	23.3	2	4	248	0.00	30.085 
18:15	30.9	30.9	30.9	73	23.3	1	3	248	0.00	30.092 
18:20	30.9	30.9	30.9	73	23.3	2	5	248	0.00	30.092 
18:25	30.7	30.7	30.7	73	23.1	2	9	248	0.00	30.092 
18:30	30.7	30.7	30.7	74	23.4	2	4	248	0.00	30.097 
18:35	30.6	30.6	30.6	74	23.3	1	3	248	0.00	30.097 
18:40	30.6	30.6	30.6	75	23.6	1	6	248	0.00	30.097 
18:45	30.4	30.4	30.4	75	23.4	2	4	248	0.00	30.104 
18:50	30.4	30.4	30.4	75	23.4	1	4	292	0.00	30.104 
18:55	30.3	30.3	30.3	75	23.3	2	5	292	0.00	30.104 
19:00	30.3	30.3	30.3	76	23.7	2	6	248	0.00	30.105 
19:05	30.1	30.1	30.1	76	23.5	2	4	248	0.00	30.105 
19:10	30.1	30.1	30.1	76	23.5	2	5	270	0.00	30.105 
19:15	30.0	30.0	30.0	76	23.4	1	4	248	0.00	30.109 
19:20	29.8	29.8	29.8	77	23.5	2	4	270	0.00	30.109 
19:25	29.8	29.8	29.8	77	23.5	1	3	270	0.00	30.109 
19:30	29.8	29.8	29.8	78	23.8	2	5	248	0.00	30.115 
19:35	29.7	29.7	29.7	78	23.7	2	5	248	0.00	30.115 
19:40	29.5	29.5	29.5	79	23.8	2	6	270	0.00	30.115 
19:45	29.4	29.4	29.4	79	23.7	2	5	292	0.00	30.120 
19:50	29.4	29.4	29.4	79	23.7	3	7	248	0.00	30.120 
19:55	29.3	29.3	29.3	79	23.6	3	6	270	0.00	30.120 
20:00	29.1	29.1	29.1	79	23.4	3	6	270	0.00	30.122 
20:05	29.1	29.1	29.1	79	23.4	2	6	270	0.00	30.122 
20:10	29.1	29.1	29.1	79	23.4	2	5	248	0.00	30.122 
20:15	29.1	29.1	29.1	79	23.4	2	4	248	0.00	30.129 
20:20	29.1	29.1	29.1	79	23.4	2	4	248	0.00	30.129 
20:25	29.1	29.1	29.1	79	23.4	2	4	248	0.00	30.129 
20:30	29.1	29.1	29.1	79	23.4	2	6	270	0.00	30.132 
20:35	29.3	29.3	29.3	79	23.6	1	2	270	0.00	30.132 
20:40	29.3	29.3	29.3	78	23.3	1	5	248	0.00	30.132 
20:45	29.3	29.3	29.3	78	23.3	2	5	270	0.00	30.130 
20:50	29.3	29.3	29.3	77	23.0	1	3	270	0.00	30.130 
20:55	29.3	29.3	29.3	77	23.0	2	6	270	0.00	30.130 
21:00	29.3	29.3	29.3	75	22.4	2	6	292	0.00	30.134 
21:05	29.1	29.1	29.1	75	22.2	2	5	270	0.00	30.134 
21:10	29.1	29.1	29.1	76	22.5	2	5	225	0.00	30.134 
21:15	29.0	29.0	29.0	76	22.4	2	5	270	0.00	30.139 
21:20	29.0	29.0	29.0	76	22.4	2	6	270	0.00	30.139 
21:25	28.8	28.8	28.8	76	22.2	3	5	270	0.00	30.139 
21:30	28.7	28.7	28.7	75	21.8	2	5	315	0.00	30.146 
21:35	28.7	28.7	28.7	74	21.5	2	5	270	0.00	30.146 
21:40	28.5	28.5	28.5	74	21.3	3	5	292	0.00	30.146 
21:45	28.4	28.4	28.4	73	20.9	3	6	270	0.00	30.142 
21:50	28.4	28.4	28.4	73	20.9	3	6	270	0.00	30.142 
21:55	28.2	28.2	28.2	72	20.4	3	7	270	0.00	30.142 
22:00	28.2	28.2	28.2	71	20.0	2	5	292	0.00	30.140 
22:05	28.2	28.2	28.2	71	20.0	3	5	270	0.00	30.140 
22:10	28.2	28.2	28.2	71	20.0	3	6	270	0.00	30.140 
22:15	28.2	28.2	28.2	71	20.0	2	7	270	0.00	30.141 
22:20	28.1	28.1	28.1	70	19.6	3	6	248	0.00	30.141 
22:25	27.8	27.8	27.8	70	19.3	3	6	248	0.00	30.141 
22:30	27.8	27.8	27.8	69	19.0	3	5	270	0.00	30.152 
22:35	27.6	27.6	27.6	69	18.8	2	5	270	0.00	30.152 
22:40	27.6	27.6	27.6	68	18.4	1	4	270	0.00	30.152 
22:45	27.6	27.6	27.6	67	18.1	2	5	270	0.00	30.152 
22:50	27.6	27.6	27.6	67	18.1	2	4	270	0.00	30.152 
22:55	27.8	27.8	27.8	67	18.3	2	5	248	0.00	30.152 
23:00	27.8	27.8	27.8	68	18.6	2	5	270	0.00	30.155 
23:05	27.8	27.8	27.8	68	18.6	1	4	225	0.00	30.155 
23:10	27.8	27.8	27.8	67	18.3	2	5	270	0.00	30.155 
23:15	27.8	27.8	27.8	67	18.3	2	4	270	0.00	30.163 
23:20	27.8	27.8	27.8	67	18.3	1	5	270	0.00	30.163 
23:25	27.8	27.8	27.8	67	18.3	2	4	270	0.00	30.163 
23:30	27.8	27.8	27.8	68	18.6	1	3	270	0.00	30.168 
23:35	27.8	27.8	27.8	68	18.6	1	3	248	0.00	30.168 
23:40	27.8	27.8	27.8	68	18.6	2	4	270	0.00	30.168 
23:45	27.8	27.8	27.8	68	18.6	2	5	270	0.00	30.177 
23:50	27.6	27.6	27.6	67	18.1	2	7	270	0.00	30.177 
23:55	27.6	27.6	27.6	67	18.1	2	5	270	0.00	30.177 

CoCoRaHS
IN-AL-39
A2 Web Hosting
Creative Commons License
GoDaddy
search engine by freefind advanced

loaded 2018-11-18 11:13:34 • last modified 2010-11-18 10:43:29
Privacy PolicyDisclaimer
• wx.awcolley.com is powered by PmWiki v.2002016 •
• all content (unless otherwise noted) © 2018 A W Colley